Latest Coastal Weather Observations for Brisbane Airport

IDQ60701

Issued at 4:41 pm EST Saturday 3 December 2016 (issued every 10 minutes, with the page automatically refreshed every 10 minutes)

About coastal observations | Map of coastal stations | Coastal observations for QLD | Marine services | Other Formats
Station Details ID: 040842 Name: BRISBANE AERO Lat: -27.39 Lon: 153.13 Height: 4.51 m
Data from the previous 72 hours. | See also: Recent months at Brisbane Airport
Date/Time
EST
Temp
°C
Wind Pressure Rain since
9am
mm
Weather Cloud Vis
km
Sea
Height
m
Swell
Dir  Spd
kts
Gust
kts
hPa Trend Height
m
Period
s
Dir
03/04:30pm 25.6 NNE 20 27 1010.5 - 0.0 - Mostly clear 10 - - - -
03/04:00pm 26.5 NNE 21 27 1009.8 - 0.0 - Mostly clear 10 - - - -
03/03:30pm 26.8 NNE 19 24 1010.5 - 0.0 - Mostly clear 10 - - - -
03/03:00pm 26.9 NNE 20 23 1011.0 F 0.0 Smoke Mostly clear 25 - - - -
03/02:30pm 26.9 NNE 19 23 1011.4 - 0.0 - - 10 - - - -
03/02:00pm 27.0 NNE 19 22 1012.1 - 0.0 - Mostly clear 10 - - - -
03/01:30pm 27.2 NNE 18 22 1012.8 - 0.0 - Mostly clear 10 - - - -
03/01:00pm 27.3 NNE 17 21 1013.1 - 0.0 - Mostly clear 10 - - - -
03/12:30pm 27.2 NNE 17 22 1013.5 - 0.0 - Mostly clear 10 - - - -
03/12:00pm 27.3 NNE 17 20 1013.7 F 0.0 Smoke Mostly clear 25 - - - -
03/11:30am 27.3 NNE 15 19 1014.0 - 0.0 - Mostly clear 10 - - - -
03/11:00am 27.7 NNE 15 17 1014.3 - 0.0 - Mostly clear 10 - - - -
03/10:30am 27.0 NNE 14 17 1014.8 - 0.0 - Mostly clear 10 - - - -
03/10:00am 26.6 NNE 12 14 1015.3 - 0.0 - Mostly clear 10 - - - -
03/09:30am 26.3 N 12 17 1015.2 - 0.0 - Mostly clear 10 - - - -
03/09:00am 26.0 N 8 11 1015.4 R 0.0 Haze Cloudy 25 - - - -
03/08:30am 25.8 N 7 10 1015.4 - 0.0 - Mostly clear 10 - - - -
03/08:00am 25.3 NNW 5 7 1015.3 - 0.0 - Mostly clear 10 - - - -
03/07:30am 25.3 NNW 6 8 1015.1 - 0.0 - Mostly clear 10 - - - -
03/07:00am 25.0 N 7 10 1014.6 - 0.0 - Mostly clear 10 - - - -
03/06:30am 24.5 NNW 5 8 1014.4 - 0.0 - Mostly clear 10 - - - -
03/06:00am 24.3 NW 6 7 1014.0 R 0.0 Smoke Cloudy 20 - - - -
03/05:30am 24.4 NNW 8 11 1013.5 - 0.0 - Cloudy 10 - - - -
03/05:00am 24.5 N 11 15 1013.1 - 0.0 - Cloudy 10 - - - -
03/04:30am 24.4 N 12 16 1012.6 - 0.0 - Cloudy 10 - - - -
03/04:00am 24.3 N 13 16 1012.1 - 0.0 - Cloudy 10 - - - -
03/03:30am 24.2 N 14 17 1012.0 - 0.0 - Cloudy 10 - - - -
03/03:00am 24.2 N 13 16 1011.9 R 0.0 Haze Cloudy 20 - - - -
03/02:30am 24.3 N 13 16 1012.0 - 0.0 - Cloudy 10 - - - -
03/02:00am 24.1 N 12 16 1012.0 - 0.0 - Mostly cloudy 10 - - - -
03/01:30am 24.1 N 9 13 1012.1 - 0.0 - Mostly cloudy 10 - - - -
03/01:00am 24.5 N 10 14 1012.5 - 0.0 - Mostly cloudy 10 - - - -
03/12:30am 24.4 N 8 13 1012.3 - 0.0 - Mostly cloudy 10 - - - -
03/12:00am 24.6 N 9 17 1012.6 R 0.0 Haze Mostly cloudy 20 - - - -
 
Date/Time
EST
Temp
°C
Wind Pressure Rain since
9am
mm
Weather Cloud Vis
km
Sea
Height
m
Swell
Dir  Spd
kts
Gust
kts
hPa Trend Height
m
Period
s
Dir
02/11:30pm 24.7 N 12 16 1012.6 - 0.0 - Mostly cloudy 10 - - - -
02/11:00pm 24.8 N 13 18 1012.9 - 0.0 - Partly cloudy 10 - - - -
02/10:30pm 24.6 N 14 18 1012.9 - 0.0 - Partly cloudy 10 - - - -
02/10:00pm 24.5 NNE 14 16 1013.0 - 0.0 - Mostly clear 10 - - - -
02/09:30pm 24.6 NNE 15 17 1013.1 - 0.0 - Partly cloudy 10 - - - -
02/09:00pm 24.7 NNE 13 17 1012.9 R 0.0 Haze Mostly cloudy 20 - - - -
02/08:30pm 24.7 N 15 19 1012.3 - 0.0 - Partly cloudy 10 - - - -
02/08:00pm 24.7 NNE 14 18 1011.9 - 0.0 - Partly cloudy 10 - - - -
02/07:30pm 24.6 NNE 15 19 1011.6 - 0.0 - Mostly clear 10 - - - -
02/07:00pm 24.7 NNE 16 21 1011.1 - 0.0 - Mostly clear 10 - - - -
02/06:30pm 24.9 NNE 16 21 1010.9 - 0.0 - Mostly clear 10 - - - -
02/06:00pm 25.2 NNE 17 22 1010.3 F 0.0 Smoke Mostly clear 25 - - - -
02/05:30pm 25.5 NNE 17 21 1010.0 - 0.0 - Mostly clear 10 - - - -
02/05:00pm 25.8 NNE 18 23 1009.8 - 0.0 - - 10 - - - -
02/04:30pm 26.3 NNE 18 23 1009.4 - 0.0 - - 10 - - - -
02/04:00pm 26.6 NNE 19 23 1009.3 - 0.0 - - 10 - - - -
02/03:30pm 26.9 NNE 18 23 1009.3 - 0.0 - - 10 - - - -
02/03:00pm 27.8 NNE 19 25 1009.7 R 0.0 Haze Mostly clear 25 - - - -
02/02:30pm 27.7 NNE 18 22 1009.9 - 0.0 - Mostly clear 10 - - - -
02/02:00pm 27.2 NNE 19 23 1010.1 - 0.0 - Mostly clear 10 - - - -
02/01:30pm 27.2 NNE 19 24 1010.3 - 0.0 - Mostly clear 10 - - - -
02/01:00pm 27.2 NNE 19 23 1010.3 - 0.0 - Mostly clear 10 - - - -
02/12:30pm 26.6 NNE 19 23 1010.7 - 0.0 - Mostly clear 10 - - - -
02/12:00pm 26.8 NNE 18 22 1010.9 F 0.0 Haze Mostly clear 25 - - - -
02/11:30am 26.7 NNE 17 21 1011.2 - 0.0 - Mostly clear 10 - - - -
02/11:00am 26.6 NNE 15 19 1011.7 - 0.0 - Mostly clear 10 - - - -
02/10:30am 26.3 NNE 13 16 1011.9 - 0.0 - Mostly clear 10 - - - -
02/10:00am 26.7 NNE 12 14 1012.0 - 0.0 - Mostly clear 10 - - - -
02/09:30am 25.9 NNE 10 14 1012.3 - 0.0 - Mostly clear 10 - - - -
02/09:00am 25.4 N 9 13 1012.4 F 1.4 Fine Mostly clear 30 - - - -
02/08:30am 25.6 N 9 13 1012.5 - 1.4 - Mostly clear 10 - - - -
02/08:00am 24.7 NNW 10 13 1012.6 - 1.4 - Mostly clear 10 - - - -
02/07:30am 23.9 NNW 9 14 1012.7 - 1.4 - Mostly clear 10 - - - -
02/07:00am 23.4 NNW 8 11 1012.4 - 1.4 - Mostly clear 10 - - - -
02/06:30am 22.3 NNW 7 17 1012.3 - 1.4 - Mostly clear 10 - - - -
02/06:00am 21.8 WNW 4 7 1012.2 R 1.4 Fine Mostly clear 25 - - - -
02/05:30am 20.8 W 5 8 1012.0 - 1.4 - Mostly clear 10 - - - -
02/05:00am 20.4 WNW 6 7 1011.4 - 1.4 - Mostly clear 10 - - - -
02/04:30am 20.1 WNW 5 6 1011.0 - 1.4 - - 10 - - - -
02/04:00am 19.7 NW 6 6 1010.8 - 1.4 - - 10 - - - -
02/03:30am 20.4 WNW 5 6 1010.7 - 1.4 - - 10 - - - -
02/03:00am 20.3 NW 5 5 1010.4 R 1.4 Fine Mostly clear 25 - - - -
02/02:30am 21.0 NW 6 7 1010.5 - 1.4 - Mostly clear 10 - - - -
02/02:00am 22.1 N 11 15 1010.4 - 1.4 - Mostly clear 10 - - - -
02/01:30am 22.3 N 11 15 1010.4 - 1.4 - - 10 - - - -
02/01:00am 22.2 N 12 16 1010.6 - 1.4 - - 10 - - - -
02/12:30am 22.2 N 11 16 1010.8 - 1.4 - - 10 - - - -
02/12:00am 22.5 N 15 18 1011.0 R 1.4 Fine Clear 25 - - - -
 
Date/Time
EST
Temp
°C
Wind Pressure Rain since
9am
mm
Weather Cloud Vis
km
Sea
Height
m
Swell
Dir  Spd
kts
Gust
kts
hPa Trend Height
m
Period
s
Dir
01/11:30pm 22.6 N 11 16 1011.3 - 1.4 - Mostly clear 10 - - - -
01/11:00pm 23.1 N 11 14 1011.5 - 1.4 - Mostly clear 10 - - - -
01/10:30pm 23.9 N 16 21 1011.5 - 1.4 - Mostly clear 10 - - - -
01/10:00pm 24.0 N 16 20 1011.6 - 1.4 - Mostly clear 10 - - - -
01/09:30pm 24.0 N 15 20 1011.6 - 1.4 - Mostly clear 10 - - - -
01/09:03pm 24.1 N 17 30 1011.4 - 1.4 - Mostly clear 10 - - - -
01/09:00pm 24.1 N 18 22 1011.4 R 1.4 Distant precip. Partly cloudy 25 - - - -
01/08:30pm 24.2 NNE 19 24 1011.4 - 1.4 - Mostly clear 10 - - - -
01/08:00pm 24.0 NNE 17 23 1011.0 - 1.4 - Mostly clear 10 - - - -
01/07:30pm 23.9 NE 14 22 1010.9 - 1.4 - Mostly clear 10 - - - -
01/07:00pm 23.4 NE 15 19 1010.3 - 1.4 - Mostly clear 10 - - - -
01/06:48pm 23.4 NE 15 21 1010.4 - 1.4 - Mostly clear 10 - - - -
01/06:30pm 23.7 NE 13 18 1009.8 - 1.4 Thunder Mostly clear 10 - - - -
01/06:08pm 24.0 NE 14 20 1009.8 - 0.4 Thunderstorm Mostly clear 10 - - - -
01/06:00pm 23.9 NE 15 21 1009.2 R 0.4 Showers Mostly cloudy 25 - - - -
01/05:30pm 23.8 NE 15 19 1008.0 - 0.4 Showers Mostly clear 10 - - - -
01/05:00pm 23.4 NNE 13 19 1008.5 - 0.2 - Mostly clear 10 - - - -
01/04:51pm 24.4 NNE 17 27 1008.8 - 0.0 Thunderstorm Partly cloudy 10 - - - -
01/04:46pm 24.4 NNE 21 27 1008.1 - 0.0 Thunder Partly cloudy 10 - - - -
01/04:30pm 24.4 NNE 18 24 1007.3 - 0.0 - Partly cloudy 10 - - - -
01/04:00pm 24.8 NNE 19 27 1006.5 - 0.0 - Mostly clear 10 - - - -
01/03:30pm 25.4 NNE 20 26 1007.6 - 0.0 - Mostly clear 10 - - - -
01/03:00pm 26.1 NNE 21 27 1006.2 F 0.0 Fine Partly cloudy 30 - - - -
01/02:30pm 26.8 NNE 19 25 1007.2 - 0.0 - Mostly clear 10 - - - -
01/02:00pm 27.0 NNE 19 26 1008.1 - 0.0 - Mostly clear 10 - - - -
01/01:30pm 26.5 NNE 19 24 1008.6 - 0.0 - Mostly clear 10 - - - -
01/01:00pm 26.5 NNE 18 22 1009.1 - 0.0 - Mostly clear 10 - - - -
01/12:30pm 26.7 NNE 17 20 1009.4 - 0.0 - Mostly clear 10 - - - -
01/12:00pm 26.0 NNE 17 21 1009.7 F 0.0 Fine Mostly clear 30 - - - -
01/11:30am 27.1 NNE 18 22 1010.1 - 0.0 - Mostly clear 10 - - - -
01/11:00am 27.5 NNE 17 20 1010.7 - 0.0 - Mostly clear 10 - - - -
01/10:30am 27.1 NNE 14 17 1011.3 - 0.0 - Mostly clear 10 - - - -
01/10:00am 26.4 NNE 12 14 1012.0 - 0.0 - Mostly clear 10 - - - -
01/09:30am 26.1 N 11 15 1012.2 - 0.0 - Mostly clear 10 - - - -
01/09:00am 25.3 N 11 17 1012.4 F 3.2 Fine Partly cloudy 30 - - - -
01/08:30am 25.1 NNW 11 15 1012.2 - 3.2 - Mostly clear 10 - - - -
01/08:00am 24.3 NNW 9 11 1012.2 - 3.2 - Mostly clear 10 - - - -
01/07:30am 24.3 NNW 8 16 1012.2 - 3.2 - Mostly clear 10 - - - -
01/07:00am 22.9 NNW 6 8 1012.1 - 3.2 - Mostly clear 10 - - - -
01/06:30am 21.9 CALM 0 0 1012.0 - 3.2 - - 10 - - - -
01/06:00am 20.7 SSW 4 5 1012.0 R 3.2 Fine Mostly clear 20 - - - -
01/05:30am 19.9 SW 4 5 1011.8 - 3.2 - Mostly clear 10 - - - -
01/05:00am 19.1 W 5 6 1011.3 - 3.2 - Mostly clear 10 - - - -
01/04:30am 19.2 W 7 7 1011.2 - 3.2 - Mostly clear 10 - - - -
01/04:00am 19.5 SW 3 4 1011.1 - 3.2 - Mostly clear 10 - - - -
01/03:30am 19.6 WSW 4 6 1010.9 - 3.2 - Mostly clear 10 - - - -
01/03:00am 20.0 W 5 5 1010.7 F 3.2 Fine Mostly clear 20 - - - -
01/02:30am 19.8 W 3 5 1010.7 - 3.2 - Mostly clear 10 - - - -
01/02:00am 20.4 W 5 5 1010.8 - 3.2 - Mostly clear 10 - - - -
01/01:30am 20.6 CALM 0 0 1011.2 - 3.2 - Mostly clear 10 - - - -
01/01:00am 20.8 SW 5 6 1011.3 - 3.2 - Mostly clear 10 - - - -
01/12:30am 21.4 SSW 5 7 1011.6 - 3.2 - Mostly clear 10 - - - -
01/12:00am 21.0 WSW 7 8 1011.8 F 3.2 Haze Partly cloudy 20 - - - -
 
Date/Time
EST
Temp
°C
Wind Pressure Rain since
9am
mm
Weather Cloud Vis
km
Sea
Height
m
Swell
Dir  Spd
kts
Gust
kts
hPa Trend Height
m
Period
s
Dir
30/11:30pm 22.0 NNW 8 13 1011.8 - 3.2 - Partly cloudy 10 - - - -
30/11:00pm 22.2 N 11 15 1011.6 - 3.2 - Mostly clear 10 - - - -
30/10:30pm 21.8 NNE 9 11 1011.8 - 3.2 - Mostly clear 10 - - - -
30/10:00pm 21.9 NNE 6 8 1012.5 - 3.2 - Mostly clear 10 - - - -
30/09:30pm 22.6 NNE 7 10 1012.6 - 3.2 - Mostly clear 10 - - - -
30/09:00pm 22.9 N 8 16 1012.6 R 3.2 Fine Partly cloudy 20 - - - -
30/08:30pm 21.9 NNE 7 8 1012.8 - 3.2 - Partly cloudy 10 - - - -
30/08:00pm 22.3 NE 5 7 1012.9 - 3.0 - Partly cloudy 10 - - - -
30/07:30pm 22.7 NNE 10 13 1012.4 - 3.0 - Mostly clear 10 - - - -
30/07:00pm 23.0 NNE 14 16 1011.1 - 3.0 - Mostly clear 10 - - - -
30/06:30pm 23.5 NE 9 13 1011.6 - 3.0 - Mostly clear 10 - - - -
30/06:00pm 23.8 NE 14 20 1010.8 R 3.0 Rain Partly cloudy 25 - - - -
30/05:30pm 23.2 N 10 14 1011.2 - 3.0 - Mostly clear 10 - - - -
30/05:13pm 23.2 NNE 11 15 1011.7 - 3.0 - Mostly clear 10 - - - -
30/05:00pm 23.2 ENE 10 16 1009.7 - 3.0 - Mostly clear 10 - - - -

Other Formats:

Comma delimited format used in spreadsheet applications
http://www.bom.gov.au/fwo/IDQ60701/IDQ60701.94578.axf

JavaScript Object Notation format (JSON) in row-major order
http://www.bom.gov.au/fwo/IDQ60701/IDQ60701.94578.json